createdAt,value
2017-09-18T00:01:09.015Z,1.67
2017-09-18T00:03:36.536Z,1.57
2017-09-18T00:06:04.068Z,1.30
2017-09-18T00:08:31.638Z,1.63
2017-09-18T00:10:59.166Z,1.50
2017-09-18T00:13:26.679Z,1.50
2017-09-18T00:15:54.229Z,1.73
2017-09-18T00:18:21.747Z,1.80
2017-09-18T00:20:49.264Z,1.83
2017-09-18T00:23:16.830Z,1.90
2017-09-18T00:25:44.351Z,1.57
2017-09-18T00:28:11.875Z,1.93
2017-09-18T00:30:39.451Z,1.67
2017-09-18T00:33:06.969Z,1.30
2017-09-18T00:35:34.485Z,1.50
2017-09-18T00:38:02.053Z,1.70
2017-09-18T00:40:29.571Z,1.60
2017-09-18T00:42:57.099Z,1.60
2017-09-18T00:45:24.679Z,1.50
2017-09-18T00:47:52.202Z,1.30
2017-09-18T00:50:19.720Z,1.37
2017-09-18T00:52:47.287Z,1.50
2017-09-18T00:55:14.801Z,1.83
2017-09-18T00:57:42.323Z,2.20
2017-09-18T01:00:09.927Z,1.30
2017-09-18T01:02:37.447Z,1.73
2017-09-18T01:05:04.967Z,1.83
2017-09-18T01:07:32.544Z,2.03
2017-09-18T01:10:00.060Z,2.03
2017-09-18T01:12:27.824Z,2.13
2017-09-18T01:14:55.400Z,1.73
2017-09-18T01:17:22.921Z,1.73
2017-09-18T01:19:50.438Z,1.47
2017-09-18T01:22:18.024Z,1.90
2017-09-18T01:24:45.549Z,1.53
2017-09-18T01:27:13.089Z,2.10
2017-09-18T01:29:40.703Z,1.63
2017-09-18T01:32:08.225Z,2.13
2017-09-18T01:34:35.747Z,1.70
2017-09-18T01:37:03.312Z,1.80
2017-09-18T01:39:30.825Z,1.93
2017-09-18T01:41:58.345Z,1.93
2017-09-18T01:44:25.910Z,1.50
2017-09-18T01:46:53.429Z,2.10
2017-09-18T01:49:20.946Z,1.70
2017-09-18T01:51:48.512Z,1.80
2017-09-18T01:54:16.033Z,1.60
2017-09-18T01:56:43.548Z,1.47
2017-09-18T01:59:11.128Z,2.17
2017-09-18T02:01:38.652Z,1.67
2017-09-18T02:04:06.170Z,1.73
2017-09-18T02:06:33.731Z,1.47
2017-09-18T02:09:01.242Z,1.60
2017-09-18T02:11:28.757Z,1.27
2017-09-18T02:13:56.325Z,1.30
2017-09-18T02:16:23.847Z,1.70
2017-09-18T02:18:51.370Z,1.70
2017-09-18T02:21:18.935Z,1.30
2017-09-18T02:23:46.452Z,1.37
2017-09-18T02:26:13.972Z,1.50
2017-09-18T02:28:41.547Z,1.13
2017-09-18T02:31:09.066Z,1.20
2017-09-18T02:33:36.590Z,1.50
2017-09-18T02:36:04.146Z,1.10
2017-09-18T02:38:31.682Z,0.97
2017-09-18T02:40:59.198Z,1.40
2017-09-18T02:43:26.750Z,1.50
2017-09-18T02:45:54.267Z,2.00
2017-09-18T02:48:21.837Z,1.80
2017-09-18T02:50:49.355Z,1.73
2017-09-18T02:53:16.870Z,1.63
2017-09-18T02:55:44.455Z,1.50
2017-09-18T02:58:11.974Z,1.47
2017-09-18T03:00:39.570Z,1.13
2017-09-18T03:03:07.125Z,1.90
2017-09-18T03:05:34.642Z,1.40
2017-09-18T03:08:02.214Z,1.20
2017-09-18T03:10:29.735Z,1.30
2017-09-18T03:12:57.267Z,1.20
2017-09-18T03:15:24.815Z,1.60
2017-09-18T03:17:52.334Z,1.33
2017-09-18T03:20:19.899Z,1.90
2017-09-18T03:22:47.419Z,1.70
2017-09-18T03:25:14.941Z,1.33
2017-09-18T03:27:42.493Z,1.17
2017-09-18T03:30:10.024Z,1.70
2017-09-18T03:32:37.593Z,1.57
2017-09-18T03:35:05.109Z,1.17
2017-09-18T03:37:32.629Z,1.13
2017-09-18T03:40:00.182Z,1.27
2017-09-18T03:42:27.705Z,1.30
2017-09-18T03:44:55.321Z,1.00
2017-09-18T03:47:22.841Z,1.00
2017-09-18T03:49:50.367Z,1.30
2017-09-18T03:52:17.933Z,1.27
2017-09-18T03:54:45.447Z,1.37
2017-09-18T03:57:13.012Z,1.17
2017-09-18T03:59:40.530Z,0.97
2017-09-18T04:02:08.057Z,1.00
2017-09-18T04:04:35.601Z,1.00
2017-09-18T04:07:03.117Z,0.90
2017-09-18T04:09:30.682Z,1.27
2017-09-18T04:11:58.201Z,1.00
2017-09-18T04:14:25.722Z,0.80
2017-09-18T04:16:53.276Z,0.90
2017-09-18T04:19:20.797Z,1.00
2017-09-18T04:21:48.367Z,1.00
2017-09-18T04:24:15.880Z,0.90
2017-09-18T04:26:43.396Z,1.00
2017-09-18T04:29:10.954Z,0.90
2017-09-18T04:31:38.469Z,1.20
2017-09-18T04:34:06.041Z,1.17
2017-09-18T04:36:33.562Z,1.60
2017-09-18T04:39:01.088Z,1.23
2017-09-18T04:41:28.636Z,1.30
